Weather reports worldwide

Advertisment
Cairngorm, United Kingdom (3065): temperature & dewpoint: 17.09.2018 02:00:00 - 23.09.2018 02:00:00 (BST)Cairngorm, United Kingdom (3065): wind speed & gusts: 17.09.2018 02:00:00 - 23.09.2018 02:00:00 (BST)Cairngorm, United Kingdom (3065): wind direction: 17.09.2018 02:00:00 - 23.09.2018 02:00:00 (BST)
Date & Time tt [°C] td [°C] ff [km/h] ff [kn] fx [km/h] fx [kn] dd
23.09.2018 02:00:00 -0,6 -0,6 28 15 - - WNW
23.09.2018 01:00:00 -0,5 -0,5 29 16 - - WNW
23.09.2018 00:00:00 -0,7 -0,7 34 18 - - WNW
22.09.2018 23:00:00 -0,4 -0,4 31 17 - - WNW
22.09.2018 22:00:00 -0,2 -0,2 37 20 - - WNW
22.09.2018 21:00:00 -0,2 -0,2 35 19 55 30 WNW
22.09.2018 20:00:00 0,0 0,0 41 22 54 29 WNW
22.09.2018 19:00:00 0,0 0,0 52 28 59 32 WNW
22.09.2018 18:00:00 0,4 0,4 54 29 67 36 WNW
22.09.2018 17:00:00 0,7 0,7 48 26 74 40 WNW
22.09.2018 16:00:00 0,8 0,8 55 30 78 42 W
22.09.2018 15:00:00 0,5 0,5 55 30 70 38 W
22.09.2018 14:00:00 0,8 0,8 59 32 87 47 WNW
22.09.2018 13:00:00 0,1 -0,3 72 39 100 54 WNW
22.09.2018 12:00:00 0,0 0,0 68 37 94 51 WNW
22.09.2018 11:00:00 0,1 0,1 72 39 119 64 WNW
22.09.2018 10:00:00 0,0 0,0 83 45 131 71 W
22.09.2018 09:00:00 -0,8 -0,8 96 52 124 67 WNW
22.09.2018 08:00:00 -1,0 -1,0 74 40 107 58 WNW
22.09.2018 07:00:00 -1,4 -1,4 91 49 143 77 W
22.09.2018 06:00:00 -0,7 -0,7 96 52 137 74 W
22.09.2018 05:00:00 -0,1 -0,1 83 45 111 60 WNW
22.09.2018 04:00:00 -0,9 -0,9 76 41 109 59 W
22.09.2018 03:00:00 -0,6 -0,6 85 46 115 62 W
22.09.2018 02:00:00 -0,3 -0,3 78 42 111 60 W
22.09.2018 01:00:00 -0,4 -0,4 89 48 117 63 W
22.09.2018 00:00:00 -0,8 -0,8 89 48 107 58 W
21.09.2018 23:00:00 -1,2 -1,2 85 46 111 60 W
21.09.2018 22:00:00 -0,2 -0,2 72 39 106 57 W
21.09.2018 21:00:00 -0,1 -0,1 70 38 96 52 W
21.09.2018 20:00:00 0,1 0,1 74 40 94 51 W
21.09.2018 19:00:00 0,0 0,0 63 34 98 53 W
21.09.2018 18:00:00 0,6 0,6 63 34 87 47 W
21.09.2018 17:00:00 0,5 0,5 57 31 81 44 WNW
21.09.2018 16:00:00 0,0 0,0 68 37 94 51 WNW
21.09.2018 15:00:00 0,2 0,2 70 38 102 55 WNW
21.09.2018 14:00:00 0,1 0,1 76 41 93 50 NW
21.09.2018 13:00:00 0,0 0,0 67 36 87 47 NW
21.09.2018 12:00:00 -0,3 -0,3 61 33 78 42 NW
21.09.2018 11:00:00 -0,1 -0,1 68 37 91 49 NW
21.09.2018 10:00:00 0,0 0,0 78 42 98 53 WNW
21.09.2018 09:00:00 -0,5 -0,5 81 44 98 53 WNW
21.09.2018 08:00:00 -0,6 -0,6 76 41 89 48 WNW
21.09.2018 07:00:00 -0,6 -0,6 70 38 87 47 WNW
21.09.2018 06:00:00 -0,3 -0,3 65 35 81 44 WNW
21.09.2018 05:00:00 -0,1 -0,1 54 29 67 36 WNW
21.09.2018 04:00:00 -0,2 -0,2 50 27 54 29 WNW
21.09.2018 03:00:00 -0,2 -0,2 41 22 54 29 NW
21.09.2018 02:00:00 0,1 0,1 24 13 - - WNW
21.09.2018 01:00:00 0,4 0,1 9 5 - - N
21.09.2018 00:00:00 0,2 -0,2 5 3 - - NNE
20.09.2018 23:00:00 0,6 0,4 8 4 - - SE
20.09.2018 22:00:00 0,9 0,9 16 9 - - SW
20.09.2018 21:00:00 1,1 1,1 29 16 - - WSW
20.09.2018 20:00:00 1,0 1,0 24 13 - - WSW
20.09.2018 19:00:00 1,4 1,3 21 11 - - WSW
20.09.2018 18:00:00 1,8 1,2 28 15 46 25 WSW
20.09.2018 17:00:00 2,0 1,6 34 18 61 33 SW
20.09.2018 16:00:00 2,0 1,6 42 23 81 44 W
20.09.2018 15:00:00 2,1 1,8 63 34 100 54 W
20.09.2018 14:00:00 2,0 1,5 78 42 126 68 W
20.09.2018 13:00:00 2,1 1,9 80 43 130 70 WSW
20.09.2018 12:00:00 1,5 1,4 107 58 143 77 WSW
20.09.2018 11:00:00 1,2 1,2 106 57 139 75 WSW
20.09.2018 10:00:00 1,2 1,0 106 57 133 72 WSW
20.09.2018 09:00:00 1,1 0,9 109 59 131 71 WSW
20.09.2018 08:00:00 -0,1 -0,1 83 45 130 70 WSW
20.09.2018 07:00:00 0,6 0,6 96 52 128 69 WSW
20.09.2018 06:00:00 0,0 0,0 85 46 124 67 WSW
20.09.2018 05:00:00 0,7 0,7 94 51 117 63 WSW
20.09.2018 04:00:00 0,1 0,1 100 54 133 72 WSW
20.09.2018 03:00:00 1,4 1,4 98 53 128 69 WSW
20.09.2018 02:00:00 -0,3 -0,3 100 54 128 69 WSW
20.09.2018 01:00:00 -0,7 -0,7 89 48 107 58 SW
20.09.2018 00:00:00 0,3 0,3 57 31 126 68 WSW
19.09.2018 23:00:00 0,0 0,0 76 41 143 77 SW
19.09.2018 22:00:00 0,4 0,4 91 49 131 71 WSW
19.09.2018 21:00:00 0,2 0,2 91 49 143 77 WSW
19.09.2018 20:00:00 0,6 0,6 98 53 146 79 WSW
19.09.2018 19:00:00 0,7 0,7 107 58 141 76 WSW
19.09.2018 18:00:00 0,9 0,9 87 47 148 80 WSW
19.09.2018 17:00:00 1,3 1,3 98 53 180 97 WSW
19.09.2018 16:00:00 1,2 1,2 117 63 161 87 WSW
19.09.2018 15:00:00 3,8 3,8 94 51 144 78 SSW
19.09.2018 14:00:00 2,7 2,7 107 58 174 94 SSW
19.09.2018 13:00:00 4,2 4,2 104 56 183 99 SSW
19.09.2018 12:00:00 5,4 5,4 111 60 150 81 SSE
19.09.2018 11:00:00 3,3 3,3 120 65 156 84 SSE
19.09.2018 10:00:00 1,7 1,7 106 57 139 75 SSE
19.09.2018 09:00:00 1,3 1,3 109 59 141 76 S
19.09.2018 08:00:00 1,5 1,5 96 52 115 62 S
19.09.2018 07:00:00 2,3 2,3 96 52 119 64 SSW
19.09.2018 06:00:00 1,8 1,8 85 46 111 60 SSW
19.09.2018 05:00:00 2,1 2,1 74 40 107 58 SSW
19.09.2018 04:00:00 2,1 2,1 78 42 154 83 SW
19.09.2018 03:00:00 1,6 1,6 94 51 150 81 SW
19.09.2018 02:00:00 1,3 1,3 102 55 135 73 SW
19.09.2018 01:00:00 3,8 3,8 93 50 126 68 SSW
19.09.2018 00:00:00 4,3 4,3 81 44 130 70 SSW
18.09.2018 23:00:00 4,0 4,0 80 43 107 58 SW
18.09.2018 22:00:00 4,0 4,0 87 47 106 57 SW
18.09.2018 21:00:00 5,4 5,4 61 33 106 57 SW
18.09.2018 20:00:00 5,8 5,8 74 40 113 61 SW
18.09.2018 19:00:00 6,0 6,0 70 38 106 57 SW
18.09.2018 18:00:00 6,2 6,2 65 35 109 59 WSW
18.09.2018 17:00:00 8,2 8,2 61 33 94 51 WSW
18.09.2018 16:00:00 8,0 8,0 83 45 111 60 SW
18.09.2018 15:00:00 9,0 9,0 55 30 83 45 SSW
18.09.2018 14:00:00 9,3 9,3 44 24 55 30 SSW
18.09.2018 13:00:00 9,2 9,2 34 18 - - SSW
18.09.2018 12:00:00 9,2 9,2 22 12 - - SW
18.09.2018 11:00:00 8,9 8,9 - - - - -
18.09.2018 10:00:00 8,8 8,8 - - - - -
18.09.2018 09:00:00 8,9 8,8 - - - - -
18.09.2018 08:00:00 8,9 8,8 - - - - -
18.09.2018 07:00:00 8,9 8,8 39 21 55 30 SSW
18.09.2018 06:00:00 8,8 8,8 44 24 72 39 SSW
18.09.2018 05:00:00 9,0 9,0 50 27 80 43 SSW
18.09.2018 04:00:00 9,0 8,9 57 31 94 51 SSW
18.09.2018 03:00:00 8,8 8,8 74 40 100 54 SSW
18.09.2018 02:00:00 8,8 8,8 83 45 106 57 SSW
18.09.2018 01:00:00 8,8 8,8 83 45 106 57 SSW
18.09.2018 00:00:00 9,2 9,2 80 43 120 65 S
17.09.2018 23:00:00 9,7 9,7 85 46 109 59 S
17.09.2018 22:00:00 9,3 9,3 89 48 119 64 SSW
17.09.2018 21:00:00 9,0 9,0 89 48 124 67 S
17.09.2018 20:00:00 8,5 8,5 89 48 113 61 S
17.09.2018 19:00:00 7,7 7,7 96 52 119 64 S
17.09.2018 18:00:00 7,1 7,1 89 48 113 61 S
17.09.2018 17:00:00 6,1 6,1 76 41 96 52 S
17.09.2018 16:00:00 5,3 5,3 78 42 106 57 S
17.09.2018 15:00:00 5,1 5,1 80 43 102 55 S
17.09.2018 14:00:00 4,8 4,8 65 35 83 45 S
17.09.2018 13:00:00 4,9 4,9 44 24 65 35 SSE
17.09.2018 12:00:00 5,2 5,1 39 21 54 29 S
17.09.2018 11:00:00 5,3 5,3 37 20 74 40 SSW
17.09.2018 10:00:00 5,3 5,3 37 20 61 33 SW
17.09.2018 09:00:00 5,2 5,2 39 21 61 33 SW
17.09.2018 08:00:00 4,9 4,9 31 17 68 37 SW
17.09.2018 07:00:00 5,0 5,0 50 27 67 36 SW
17.09.2018 06:00:00 4,3 4,3 50 27 70 38 SSW
17.09.2018 05:00:00 4,1 4,1 52 28 85 46 SW
17.09.2018 04:00:00 4,3 4,3 74 40 104 56 WSW
17.09.2018 03:00:00 3,7 3,7 76 41 102 55 WSW
17.09.2018 02:00:00 3,8 3,8 83 45 106 57 WSW

tt = temperature
td = dewpoint
ff = wind speed
fx = gusts
dd = wind direction

Next stations